Time;durP1;ratioP1;P1;durP2;ratioP2;P2;SDS_P1;SDS_P2;PMS_P1;PMS_P2;Temp;Humidity;BMP_temperature;BMP_pressure;BME280_temperature;BME280_humidity;BME280_pressure;Samples;Min_cycle;Max_cycle;Signal;HPM_P1;HPM_P2
2023/03/28 00:03:00;;;;;;;;;18.00;17.00;;;;;5.86;42.92;98419.03;6252831;27;96857;-66
2023/03/28 00:06:08;;;;;;;;;19.40;18.00;;;;;5.80;42.97;98411.00;6254431;27;96310;-66
2023/03/28 00:09:13;;;;;;;;;18.00;16.40;;;;;5.77;42.97;98411.38;6253141;27;96302;-65
2023/03/28 00:12:16;;;;;;;;;19.80;18.00;;;;;5.72;42.99;98406.63;6260797;27;96415;-65
2023/03/28 00:15:19;;;;;;;;;19.00;17.80;;;;;5.73;43.14;98410.13;6262635;27;96455;-65
2023/03/28 00:18:23;;;;;;;;;18.40;17.40;;;;;5.71;43.13;98405.00;6255541;27;96231;-66
2023/03/28 00:21:28;;;;;;;;;20.80;19.00;;;;;5.59;43.21;98409.28;6254922;27;96213;-66
2023/03/28 00:24:34;;;;;;;;;21.00;19.00;;;;;5.52;43.52;98401.25;6273755;27;96219;-65
2023/03/28 00:27:37;;;;;;;;;17.60;15.20;;;;;5.42;43.86;98400.81;6254120;27;96335;-65
2023/03/28 00:30:40;;;;;;;;;21.20;19.20;;;;;5.33;43.77;98391.31;6248000;27;96359;-65
2023/03/28 00:33:46;;;;;;;;;19.80;18.40;;;;;5.32;44.08;98394.19;6259261;27;96686;-65
2023/03/28 00:36:52;;;;;;;;;23.00;21.20;;;;;5.28;43.99;98406.31;6260225;27;96306;-65
2023/03/28 00:39:58;;;;;;;;;22.60;20.60;;;;;5.12;44.14;98397.63;6262853;27;96863;-65
2023/03/28 00:43:02;;;;;;;;;25.00;22.00;;;;;5.02;44.58;98399.81;6244909;28;96890;-65
2023/03/28 00:46:10;;;;;;;;;27.00;23.00;;;;;5.03;44.60;98412.16;6261553;27;96303;-65
2023/03/28 00:49:20;;;;;;;;;27.00;23.80;;;;;5.02;44.66;98418.53;6251818;27;96634;-65
2023/03/28 00:52:28;;;;;;;;;25.50;22.25;;;;;4.98;44.86;98417.28;6267648;27;96889;-65
2023/03/28 00:55:37;;;;;;;;;24.20;21.20;;;;;4.94;44.71;98424.00;6260804;27;97026;-64
2023/03/28 00:58:43;;;;;;;;;22.60;20.60;;;;;4.96;44.48;98421.97;6258374;27;96377;-65
2023/03/28 01:01:47;;;;;;;;;21.00;19.00;;;;;4.77;44.56;98414.69;6255426;27;96580;-65
2023/03/28 01:04:58;;;;;;;;;25.80;22.40;;;;;4.91;44.26;98415.56;6270103;27;96299;-65
2023/03/28 01:08:07;;;;;;;;;22.80;21.00;;;;;4.89;43.79;98410.44;6244311;27;97400;-65
2023/03/28 01:11:13;;;;;;;;;22.80;20.20;;;;;4.87;43.62;98422.34;6256019;27;96512;-64
2023/03/28 01:14:21;;;;;;;;;25.00;22.60;;;;;4.81;43.78;98423.94;6234629;27;98460;-65
2023/03/28 01:17:25;;;;;;;;;20.50;20.00;;;;;4.82;43.85;98428.28;6279583;27;97107;-65
2023/03/28 01:20:51;;;;;;;;;24.00;22.40;;;;;4.68;43.50;98411.34;6233226;27;97531;-65
2023/03/28 01:24:24;;;;;;;;;27.00;24.80;;;;;4.84;44.39;98422.75;6267791;27;96293;-65
2023/03/28 01:27:37;;;;;;;;;25.60;24.60;;;;;4.79;44.51;98429.47;6274572;27;96443;-64
2023/03/28 01:31:08;;;;;;;;;29.00;26.75;;;;;4.75;44.79;98417.53;6253578;27;96616;-65
2023/03/28 01:34:46;;;;;;;;;27.50;26.75;;;;;4.78;44.65;98419.84;6267113;27;96672;-64
2023/03/28 01:38:00;;;;;;;;;27.75;24.75;;;;;4.75;44.63;98414.03;6245041;27;96869;-65
2023/03/28 01:41:09;;;;;;;;;32.50;29.50;;;;;4.73;44.65;98419.59;6255929;27;96298;-65
2023/03/28 01:44:30;;;;;;;;;27.80;26.40;;;;;4.72;44.83;98417.13;6225932;28;98353;-64
2023/03/28 01:47:39;;;;;;;;;28.50;26.75;;;;;4.73;44.74;98410.75;6244405;27;96861;-65
2023/03/28 01:50:48;;;;;;;;;30.00;27.00;;;;;4.67;44.59;98422.22;6243555;27;98604;-65
2023/03/28 01:54:00;;;;;;;;;30.00;27.25;;;;;4.60;44.56;98419.50;6285660;27;96358;-64
2023/03/28 01:57:10;;;;;;;;;33.60;29.00;;;;;4.66;44.34;98426.72;6283820;27;96557;-65
2023/03/28 02:00:20;;;;;;;;;26.80;24.00;;;;;4.57;44.93;98425.22;6243504;27;96934;-64
2023/03/28 02:03:48;;;;;;;;;32.40;29.40;;;;;4.59;45.06;98427.72;6265740;27;96705;-65
2023/03/28 02:07:09;;;;;;;;;28.20;27.60;;;;;4.55;45.26;98416.59;6254414;27;98561;-65
2023/03/28 02:10:33;;;;;;;;;37.40;33.00;;;;;4.57;45.29;98424.41;6236134;27;96854;-65
2023/03/28 02:13:51;;;;;;;;;36.40;32.00;;;;;4.50;45.44;98420.84;6264618;27;96968;-65
2023/03/28 02:17:16;;;;;;;;;31.60;29.00;;;;;4.33;45.57;98402.47;6261347;27;96901;-65
2023/03/28 02:20:41;;;;;;;;;34.60;31.40;;;;;4.47;45.60;98416.75;6252581;27;96881;-65
2023/03/28 02:24:08;;;;;;;;;34.40;30.80;;;;;4.39;45.73;98419.56;6286490;27;96285;-65
2023/03/28 02:27:33;;;;;;;;;35.00;32.00;;;;;4.40;45.60;98412.38;6257628;27;97023;-64
2023/03/28 02:30:54;;;;;;;;;35.40;32.00;;;;;4.27;45.85;98413.09;6245798;27;98421;-65
2023/03/28 02:33:58;;;;;;;;;35.40;32.00;;;;;4.19;46.33;98414.06;6262251;27;96539;-65
2023/03/28 02:37:17;;;;;;;;;34.40;31.40;;;;;4.10;46.54;98406.41;6253354;27;97855;-65
2023/03/28 02:40:34;;;;;;;;;36.40;32.00;;;;;4.05;46.95;98406.16;6267492;27;96456;-65
2023/03/28 02:43:55;;;;;;;;;33.20;31.20;;;;;3.92;47.30;98410.31;6262608;27;96212;-64
2023/03/28 02:47:13;;;;;;;;;38.00;32.00;;;;;3.77;47.58;98406.91;6264655;27;96269;-65
2023/03/28 02:50:26;;;;;;;;;34.00;32.00;;;;;3.68;47.84;98404.53;6245334;28;96279;-65
2023/03/28 02:53:37;;;;;;;;;36.00;31.20;;;;;3.72;47.58;98406.63;6243987;27;98955;-65
2023/03/28 02:56:49;;;;;;;;;38.50;33.00;;;;;3.65;48.03;98410.25;6243762;28;96508;-64
2023/03/28 03:00:20;;;;;;;;;32.00;30.40;;;;;3.57;48.17;98403.19;6265558;27;96356;-65
2023/03/28 03:03:24;;;;;;;;;33.40;30.60;;;;;3.66;47.97;98425.25;6249886;27;96627;-65
2023/03/28 03:06:28;;;;;;;;;35.00;31.00;;;;;3.53;48.07;98391.25;6261421;27;96268;-65
2023/03/28 03:09:32;;;;;;;;;39.00;35.00;;;;;3.67;48.03;98414.38;6262283;27;96443;-65
2023/03/28 03:12:36;;;;;;;;;34.00;30.40;;;;;3.75;47.95;98410.78;6250792;27;98403;-64
2023/03/28 03:15:41;;;;;;;;;37.20;32.00;;;;;3.82;47.41;98414.31;6260246;27;96402;-65
2023/03/28 03:19:00;;;;;;;;;34.75;31.25;;;;;3.77;47.44;98419.41;6250681;27;96592;-65
2023/03/28 03:22:03;;;;;;;;;37.00;31.20;;;;;3.90;47.43;98407.03;6269382;27;96410;-65
2023/03/28 03:25:13;;;;;;;;;32.00;30.00;;;;;4.03;47.03;98416.16;6259738;27;98521;-64
2023/03/28 03:28:40;;;;;;;;;33.00;30.00;;;;;4.03;47.44;98398.31;6253715;27;98499;-65
2023/03/28 03:31:45;;;;;;;;;29.20;27.00;;;;;4.18;47.24;98417.75;6260588;27;97563;-65
2023/03/28 03:35:13;;;;;;;;;32.60;28.80;;;;;4.25;47.51;98421.28;6262518;27;96813;-65
2023/03/28 03:38:16;;;;;;;;;29.40;27.60;;;;;4.36;47.49;98412.75;6266684;27;97199;-65
2023/03/28 03:41:19;;;;;;;;;29.60;28.60;;;;;4.50;47.29;98410.16;6252020;27;96857;-65
2023/03/28 03:44:24;;;;;;;;;30.00;26.00;;;;;4.53;47.21;98397.28;6222790;27;98750;-64
2023/03/28 03:47:29;;;;;;;;;32.40;30.00;;;;;4.60;46.77;98406.16;6260522;27;96325;-65
2023/03/28 03:50:33;;;;;;;;;28.60;27.60;;;;;4.48;47.08;98405.06;6283324;27;96188;-65
2023/03/28 03:53:38;;;;;;;;;31.00;29.60;;;;;4.49;47.49;98406.72;6259901;27;98796;-65
2023/03/28 03:56:47;;;;;;;;;37.00;32.00;;;;;4.47;47.80;98394.56;6268022;27;96396;-64
2023/03/28 03:59:52;;;;;;;;;27.00;25.00;;;;;4.56;47.97;98402.22;6249576;27;96272;-63
2023/03/28 04:02:57;;;;;;;;;30.00;27.00;;;;;4.63;47.95;98399.59;6247647;27;98384;-65
2023/03/28 04:06:04;;;;;;;;;31.00;28.50;;;;;4.62;48.13;98395.28;6255365;27;96394;-65
2023/03/28 04:09:08;;;;;;;;;34.40;30.80;;;;;4.64;48.21;98419.94;6274565;27;96913;-65
2023/03/28 04:12:26;;;;;;;;;32.00;30.00;;;;;4.66;48.23;98413.38;6271088;27;97574;-64
2023/03/28 04:15:31;;;;;;;;;28.00;26.00;;;;;4.72;48.28;98417.13;6254683;27;96290;-65
2023/03/28 04:18:38;;;;;;;;;30.60;28.40;;;;;4.64;48.60;98409.28;6257635;27;97781;-65
2023/03/28 04:21:42;;;;;;;;;34.60;30.60;;;;;4.79;48.40;98417.97;6262455;27;98444;-65
2023/03/28 04:24:48;;;;;;;;;29.00;26.20;;;;;4.88;48.41;98411.47;6276723;27;96245;-65
2023/03/28 04:28:03;;;;;;;;;31.60;28.40;;;;;4.92;48.40;98412.72;6265318;27;96699;-65
2023/03/28 04:31:11;;;;;;;;;31.50;28.50;;;;;5.06;48.32;98410.94;6258410;27;96127;-65
2023/03/28 04:34:44;;;;;;;;;26.50;25.00;;;;;5.15;48.46;98420.44;6253556;27;97194;-64
2023/03/28 04:37:56;;;;;;;;;28.00;25.25;;;;;5.19;48.46;98421.69;6262039;27;96674;-65
2023/03/28 04:41:00;;;;;;;;;24.60;22.60;;;;;5.26;48.32;98417.19;6252720;27;96670;-65
2023/03/28 04:44:30;;;;;;;;;25.60;25.20;;;;;5.32;48.44;98407.56;6264923;27;96425;-65
2023/03/28 04:47:38;;;;;;;;;21.60;21.00;;;;;5.33;48.65;98409.19;6263657;27;96451;-64
2023/03/28 04:50:52;;;;;;;;;20.75;20.00;;;;;5.36;48.82;98414.16;6276961;27;96213;-65
2023/03/28 04:53:55;;;;;;;;;26.00;22.50;;;;;5.45;48.82;98412.94;6250686;27;96531;-64
2023/03/28 04:57:37;;;;;;;;;30.40;27.00;;;;;5.51;48.68;98404.13;6258460;27;96886;-65
2023/03/28 05:00:43;;;;;;;;;25.50;23.00;;;;;5.63;48.89;98413.19;6265963;27;96717;-65
2023/03/28 05:04:05;;;;;;;;;21.00;20.00;;;;;5.74;48.55;98411.78;6282141;27;96609;-65
2023/03/28 05:07:11;;;;;;;;;25.00;24.33;;;;;5.77;48.67;98417.56;6269240;27;96818;-65
2023/03/28 05:10:14;;;;;;;;;22.00;21.00;;;;;5.76;49.09;98415.94;6256157;27;96887;-65
2023/03/28 05:13:18;;;;;;;;;21.33;20.33;;;;;5.86;49.14;98413.69;6269077;27;96481;-65
2023/03/28 05:16:34;;;;;;;;;20.25;18.25;;;;;5.87;49.12;98404.66;6273101;27;96612;-65
2023/03/28 05:20:00;;;;;;;;;23.00;21.00;;;;;6.07;48.89;98426.06;6257497;27;98372;-65
2023/03/28 05:23:12;;;;;;;;;18.75;18.00;;;;;6.12;48.88;98410.22;6247170;27;96654;-65
2023/03/28 05:26:18;;;;;;;;;18.00;17.00;;;;;6.11;49.14;98421.16;6261971;27;96715;-65
2023/03/28 05:29:21;;;;;;;;;17.00;16.00;;;;;6.26;48.82;98395.00;6261754;27;96266;-65
2023/03/28 05:32:26;;;;;;;;;17.00;16.00;;;;;6.30;48.71;98402.44;6247523;27;96746;-65
2023/03/28 05:35:31;;;;;;;;;15.25;13.25;;;;;6.35;48.77;98409.84;6285359;27;96547;-64
2023/03/28 05:38:36;;;;;;;;;15.40;15.00;;;;;6.55;48.24;98412.50;6258533;27;98733;-64
2023/03/28 05:41:46;;;;;;;;;15.60;14.80;;;;;6.66;48.14;98406.50;6266788;27;96092;-64
2023/03/28 05:44:49;;;;;;;;;13.00;12.00;;;;;6.68;48.09;98415.16;6271271;27;96287;-63
2023/03/28 05:48:11;;;;;;;;;14.75;13.75;;;;;6.82;47.95;98396.19;6262387;27;98328;-64
2023/03/28 05:51:16;;;;;;;;;15.40;15.00;;;;;6.98;48.03;98402.94;6267716;27;96496;-64
2023/03/28 05:54:21;;;;;;;;;14.25;14.25;;;;;6.95;48.35;98412.22;6265900;27;96336;-65
2023/03/28 05:57:25;;;;;;;;;17.00;15.00;;;;;6.88;49.97;98416.78;6267507;27;96361;-64
2023/03/28 06:00:28;;;;;;;;;14.40;14.00;;;;;6.83;51.32;98419.28;6249542;27;97006;-64
2023/03/28 06:03:32;;;;;;;;;17.80;13.80;;;;;6.70;52.01;98429.16;6288423;27;96738;-65
2023/03/28 06:06:40;;;;;;;;;15.00;14.50;;;;;6.55;52.36;98432.06;6269402;27;96512;-65
2023/03/28 06:09:46;;;;;;;;;15.40;15.00;;;;;6.47;52.98;98434.97;6273689;27;96474;-65
2023/03/28 06:12:50;;;;;;;;;14.80;13.80;;;;;6.39;53.53;98438.69;6289142;27;96057;-64
2023/03/28 06:15:53;;;;;;;;;11.00;11.00;;;;;6.40;53.55;98442.19;6287197;27;96774;-65
2023/03/28 06:19:05;;;;;;;;;11.40;11.40;;;;;6.21;53.94;98438.44;6266850;27;96880;-64
2023/03/28 06:22:25;;;;;;;;;12.00;11.20;;;;;6.28;54.03;98443.81;6265708;27;96342;-65
2023/03/28 06:25:35;;;;;;;;;12.00;12.00;;;;;6.21;54.66;98461.69;6283305;27;96630;-65
2023/03/28 06:28:39;;;;;;;;;11.40;10.80;;;;;6.29;54.57;98459.69;6248823;27;96455;-65
2023/03/28 06:31:53;;;;;;;;;12.00;11.50;;;;;6.35;54.08;98458.84;6267009;27;96295;-65
2023/03/28 06:34:57;;;;;;;;;14.00;13.80;;;;;6.62;53.81;98461.53;6270265;27;96395;-65
2023/03/28 06:38:00;;;;;;;;;13.00;12.00;;;;;6.84;53.05;98460.28;6281700;27;96873;-64
2023/03/28 06:41:06;;;;;;;;;17.40;15.00;;;;;7.26;52.28;98459.78;6272466;27;96656;-65
2023/03/28 06:44:11;;;;;;;;;15.00;14.80;;;;;7.78;50.59;98466.78;6266356;27;96652;-64
2023/03/28 06:47:34;;;;;;;;;18.00;16.00;;;;;8.08;49.68;98468.88;6274089;27;96418;-65
2023/03/28 06:50:37;;;;;;;;;16.40;16.00;;;;;7.77;49.43;98467.81;6267387;27;96478;-64
2023/03/28 06:53:45;;;;;;;;;18.00;17.00;;;;;7.64;50.14;98472.41;6273786;27;96257;-65
2023/03/28 06:56:50;;;;;;;;;14.40;13.60;;;;;7.55;50.12;98476.38;6276897;27;96388;-64
2023/03/28 06:59:54;;;;;;;;;16.75;15.75;;;;;7.38;50.17;98471.47;6251773;28;96806;-65
2023/03/28 07:03:07;;;;;;;;;15.00;14.60;;;;;7.60;50.22;98477.41;6294703;27;96407;-64
2023/03/28 07:06:12;;;;;;;;;18.60;15.60;;;;;7.68;49.69;98473.63;6276907;27;96776;-64
2023/03/28 07:09:15;;;;;;;;;15.00;15.00;;;;;8.03;49.28;98480.28;6270978;27;96676;-64
2023/03/28 07:12:26;;;;;;;;;15.00;14.50;;;;;8.27;48.11;98478.69;6231990;28;96609;-63
2023/03/28 07:15:29;;;;;;;;;17.20;17.00;;;;;8.56;47.47;98479.94;6263112;27;98478;-65
2023/03/28 07:18:32;;;;;;;;;17.80;16.20;;;;;8.84;46.80;98498.34;6279666;27;96860;-65
2023/03/28 07:21:36;;;;;;;;;16.00;15.00;;;;;8.97;46.32;98482.09;6280599;27;97029;-65
2023/03/28 07:24:40;;;;;;;;;17.80;17.00;;;;;9.17;45.77;98482.72;6254422;28;97437;-65
2023/03/28 07:27:48;;;;;;;;;18.40;16.00;;;;;9.33;44.19;98484.00;6250022;27;98300;-65
2023/03/28 07:30:53;;;;;;;;;16.00;15.00;;;;;9.71;42.93;98473.00;6282986;27;96317;-65
2023/03/28 07:33:57;;;;;;;;;14.25;13.00;;;;;9.94;42.15;98475.81;6283829;27;98463;-65
2023/03/28 07:37:01;;;;;;;;;15.40;13.80;;;;;9.77;41.83;98482.88;6282955;27;96448;-65
2023/03/28 07:40:39;;;;;;;;;14.75;14.00;;;;;9.61;42.28;98467.34;6249070;27;96471;-65
2023/03/28 07:43:45;;;;;;;;;14.00;14.00;;;;;9.45;43.13;98483.03;6279769;27;96192;-65
2023/03/28 07:46:50;;;;;;;;;12.40;12.40;;;;;9.17;42.65;98493.47;6296042;27;96190;-65
2023/03/28 07:49:53;;;;;;;;;15.00;14.00;;;;;9.07;43.76;98498.53;6269821;27;96212;-66
2023/03/28 07:52:59;;;;;;;;;11.60;11.00;;;;;9.08;44.20;98495.63;6279834;27;96224;-65
2023/03/28 07:56:10;;;;;;;;;14.00;12.00;;;;;9.00;44.36;98508.53;6271460;27;97243;-65
2023/03/28 07:59:34;;;;;;;;;10.33;10.33;;;;;8.69;46.91;98512.94;6278545;27;96344;-65
2023/03/28 08:02:38;;;;;;;;;14.00;13.20;;;;;8.45;48.53;98532.53;6293116;27;96229;-65
2023/03/28 08:05:48;;;;;;;;;11.00;10.40;;;;;8.15;49.65;98537.63;6255579;27;96586;-65
2023/03/28 08:08:51;;;;;;;;;10.80;9.80;;;;;7.99;49.68;98546.16;6278088;27;96791;-65
2023/03/28 08:12:17;;;;;;;;;9.75;8.75;;;;;7.94;49.70;98546.00;6276785;27;96661;-64
2023/03/28 08:15:24;;;;;;;;;9.00;8.80;;;;;8.66;48.91;98537.53;6277690;27;96224;-65
2023/03/28 08:18:29;;;;;;;;;10.40;9.40;;;;;9.24;46.17;98547.19;6250529;27;96655;-65
2023/03/28 08:21:34;;;;;;;;;11.00;10.00;;;;;9.81;45.10;98545.97;6277972;27;96331;-65
2023/03/28 08:24:39;;;;;;;;;10.00;9.80;;;;;10.16;43.05;98547.03;6277658;27;96880;-65
2023/03/28 08:27:46;;;;;;;;;10.20;9.80;;;;;11.02;41.67;98540.34;6282684;27;96718;-65
2023/03/28 08:30:51;;;;;;;;;9.20;9.20;;;;;11.49;40.37;98535.78;6281772;27;96287;-65
2023/03/28 08:33:57;;;;;;;;;9.40;9.00;;;;;11.24;39.15;98546.81;6270350;27;99404;-64
2023/03/28 08:37:06;;;;;;;;;10.00;9.00;;;;;11.09;38.65;98541.88;6278435;27;98299;-65
2023/03/28 08:40:15;;;;;;;;;9.00;8.25;;;;;10.77;38.34;98552.16;6294238;27;96729;-65
2023/03/28 08:43:43;;;;;;;;;9.40;8.00;;;;;10.52;38.44;98558.75;6262096;27;96543;-65
2023/03/28 08:46:54;;;;;;;;;5.00;5.00;;;;;10.12;36.02;98564.63;6269398;27;96822;-64
2023/03/28 08:50:01;;;;;;;;;8.00;7.00;;;;;9.78;37.05;98565.25;6254126;27;96739;-65
2023/03/28 08:53:06;;;;;;;;;4.60;4.00;;;;;9.70;37.85;98589.78;6238913;28;98518;-65
2023/03/28 08:56:10;;;;;;;;;3.00;2.00;;;;;9.47;36.47;98580.50;6269459;27;98522;-65
2023/03/28 08:59:15;;;;;;;;;3.80;3.80;;;;;9.18;37.14;98594.63;6262042;27;97582;-65
2023/03/28 09:02:22;;;;;;;;;5.00;4.00;;;;;8.94;38.21;98587.38;6275160;27;98376;-64
2023/03/28 09:05:37;;;;;;;;;6.00;6.00;;;;;8.80;38.67;98600.06;6266633;27;96254;-65
2023/03/28 09:09:18;;;;;;;;;4.00;4.00;;;;;8.74;38.49;98608.22;6304353;27;96286;-64
2023/03/28 09:12:39;;;;;;;;;2.00;2.00;;;;;8.87;37.71;98603.56;6306339;27;96247;-65
2023/03/28 09:16:05;;;;;;;;;3.80;3.20;;;;;9.14;37.18;98617.63;6263352;27;96604;-64
2023/03/28 09:19:29;;;;;;;;;3.75;3.75;;;;;9.05;36.35;98613.56;6294652;27;96523;-64
2023/03/28 09:23:25;;;;;;;;;4.00;4.00;;;;;9.07;35.89;98624.94;6288814;27;99245;-64
2023/03/28 09:26:57;;;;;;;;;4.60;4.60;;;;;9.00;36.39;98634.88;6263253;27;96208;-64
2023/03/28 09:30:16;;;;;;;;;5.00;5.00;;;;;9.17;37.22;98643.25;6260834;28;98869;-63
2023/03/28 09:33:27;;;;;;;;;4.00;3.00;;;;;8.93;36.25;98658.31;6276924;27;96349;-65
2023/03/28 09:36:39;;;;;;;;;2.80;2.80;;;;;8.94;36.36;98663.47;6285646;27;96756;-64
2023/03/28 09:39:56;;;;;;;;;6.40;6.40;;;;;8.74;35.79;98668.16;6304147;27;96252;-65
2023/03/28 09:43:16;;;;;;;;;3.00;3.00;;;;;8.83;36.12;98663.34;6270181;27;96648;-65
2023/03/28 09:46:55;;;;;;;;;3.80;3.80;;;;;8.90;35.53;98674.88;6231163;27;96051;-64
2023/03/28 09:50:13;;;;;;;;;4.00;4.00;;;;;9.15;34.25;98681.13;6287538;27;96354;-66
2023/03/28 09:53:24;;;;;;;;;5.00;5.00;;;;;9.40;34.63;98671.22;6288897;27;96197;-65
2023/03/28 09:56:33;;;;;;;;;5.50;5.50;;;;;9.75;34.51;98684.16;6304924;27;96377;-65
2023/03/28 09:59:47;;;;;;;;;6.00;6.00;;;;;9.85;34.11;98679.09;6262959;27;96571;-65
2023/03/28 10:02:56;;;;;;;;;3.60;3.00;;;;;9.78;33.96;98689.09;6263095;28;96220;-65
2023/03/28 10:06:16;;;;;;;;;5.00;5.00;;;;;9.55;34.20;98692.41;6263003;28;96284;-65
2023/03/28 10:09:25;;;;;;;;;5.60;5.60;;;;;9.17;34.43;98697.06;6263794;27;96593;-65
2023/03/28 10:12:38;;;;;;;;;4.50;4.50;;;;;9.34;34.46;98700.84;6285096;27;96429;-65
2023/03/28 10:15:45;;;;;;;;;4.50;4.50;;;;;9.31;33.24;98698.59;6285466;27;96183;-65
2023/03/28 10:18:49;;;;;;;;;3.00;3.00;;;;;9.53;33.79;98694.50;6286839;27;97009;-64
2023/03/28 10:22:32;;;;;;;;;3.00;3.00;;;;;9.72;31.79;98695.38;6242516;27;96626;-65
2023/03/28 10:25:41;;;;;;;;;4.50;4.50;;;;;9.52;30.54;98699.06;6268612;27;96200;-65
2023/03/28 10:28:45;;;;;;;;;4.00;4.00;;;;;9.52;31.33;98709.84;6258851;27;96751;-65
2023/03/28 10:31:49;;;;;;;;;4.50;4.50;;;;;9.48;30.98;98711.28;6260739;27;96134;-64
2023/03/28 10:35:22;;;;;;;;;5.00;5.00;;;;;9.36;31.43;98698.78;6259846;28;96129;-65
2023/03/28 10:38:58;;;;;;;;;4.00;3.60;;;;;9.31;32.10;98696.75;6262197;27;98293;-65
2023/03/28 10:42:23;;;;;;;;;4.40;4.40;;;;;9.35;32.21;98716.78;6281942;27;96292;-64
2023/03/28 10:45:43;;;;;;;;;3.00;3.00;;;;;10.46;31.30;98714.09;6271244;27;96297;-65
2023/03/28 10:48:56;;;;;;;;;5.00;5.00;;;;;11.03;29.56;98718.16;6260452;27;96823;-65
2023/03/28 10:52:00;;;;;;;;;6.00;5.00;;;;;11.25;29.97;98718.47;6251089;27;98429;-64
2023/03/28 10:55:14;;;;;;;;;6.00;5.40;;;;;11.13;29.44;98721.16;6276508;27;96480;-64
2023/03/28 10:58:39;;;;;;;;;7.00;7.00;;;;;10.60;28.05;98731.81;6286369;27;96276;-64
2023/03/28 11:02:07;;;;;;;;;3.00;3.00;;;;;11.38;28.88;98737.19;6282279;27;96312;-65
2023/03/28 11:05:27;;;;;;;;;4.00;4.00;;;;;11.41;27.97;98744.81;6287415;27;96272;-63
2023/03/28 11:08:39;;;;;;;;;3.00;3.00;;;;;11.38;27.96;98739.88;6277640;27;96260;-63
2023/03/28 11:11:57;;;;;;;;;5.60;4.60;;;;;11.70;26.34;98740.41;6263725;27;96866;-63
2023/03/28 11:15:09;;;;;;;;;6.80;4.80;;;;;11.92;27.46;98741.53;6271608;27;99185;-63
2023/03/28 11:18:33;;;;;;;;;4.60;4.00;;;;;11.38;25.58;98734.47;6281074;27;96639;-63
2023/03/28 11:21:51;;;;;;;;;3.50;3.50;;;;;11.05;26.83;98745.72;6259281;27;98386;-63
2023/03/28 11:25:05;;;;;;;;;4.00;4.00;;;;;10.74;27.66;98741.38;6273028;27;96064;-63
2023/03/28 11:28:53;;;;;;;;;4.60;4.00;;;;;12.21;28.55;98745.19;6280287;27;96212;-62
2023/03/28 11:32:09;;;;;;;;;5.00;5.00;;;;;12.89;28.14;98741.78;6273491;27;96195;-63
2023/03/28 11:35:22;;;;;;;;;4.00;4.00;;;;;12.46;26.45;98742.22;6279084;27;96426;-63
2023/03/28 11:38:32;;;;;;;;;6.00;6.00;;;;;12.12;26.13;98738.47;6260539;27;99001;-64
2023/03/28 11:41:39;;;;;;;;;6.60;6.60;;;;;11.66;26.25;98756.25;6275129;27;96333;-64
2023/03/28 11:45:01;;;;;;;;;8.00;6.00;;;;;11.71;26.48;98752.88;6275631;27;96429;-63
2023/03/28 11:48:12;;;;;;;;;6.60;6.60;;;;;11.44;25.90;98757.00;6275846;27;96220;-63
2023/03/28 11:51:20;;;;;;;;;6.00;6.00;;;;;11.17;26.44;98751.19;6290556;27;96318;-64
2023/03/28 11:54:38;;;;;;;;;6.00;6.00;;;;;10.95;26.92;98750.84;6292096;27;96701;-63
2023/03/28 12:08:58;;;;;;;;;4.75;4.75;;;;;11.84;24.16;98760.78;7174327;23;99256;-66
2023/03/28 14:18:18;;;;;;;;;2.00;2.00;;;;;6.95;48.34;98899.97;6700391;22;99102;-66
2023/03/28 14:21:23;;;;;;;;;3.00;3.00;;;;;6.84;47.47;98897.84;6143880;28;97303;-66
2023/03/28 14:24:28;;;;;;;;;4.00;4.00;;;;;7.02;47.49;98894.66;6142806;28;96672;-66
2023/03/28 14:27:37;;;;;;;;;3.00;3.00;;;;;7.29;46.85;98903.63;6143171;28;96854;-66
2023/03/28 14:30:42;;;;;;;;;4.00;4.00;;;;;7.78;44.63;98898.84;6143671;28;96299;-66
2023/03/28 14:33:46;;;;;;;;;4.00;4.00;;;;;8.26;42.69;98904.03;6140570;28;96926;-66
2023/03/28 14:36:58;;;;;;;;;4.00;4.00;;;;;8.73;42.46;98907.56;6139686;28;96407;-66
2023/03/28 14:40:17;;;;;;;;;5.00;5.00;;;;;9.16;40.22;98913.25;6146244;28;96218;-66
2023/03/28 14:43:28;;;;;;;;;6.00;6.00;;;;;9.39;39.34;98906.34;6142683;28;96597;-66
2023/03/28 14:46:33;;;;;;;;;7.25;7.25;;;;;9.66;38.60;98896.28;6138617;28;96380;-66
2023/03/28 14:49:38;;;;;;;;;3.40;3.40;;;;;9.69;37.02;98909.28;6121373;28;98714;-66
2023/03/28 14:52:43;;;;;;;;;5.40;5.40;;;;;9.81;36.38;98918.34;6130445;28;97339;-66
2023/03/28 14:55:48;;;;;;;;;5.00;5.00;;;;;9.85;36.94;98916.88;6157430;28;96654;-66
2023/03/28 14:58:55;;;;;;;;;5.00;5.00;;;;;9.81;35.62;98906.75;6146096;28;96897;-66
2023/03/28 15:02:01;;;;;;;;;6.00;6.00;;;;;10.06;35.07;98909.50;6139942;28;96805;-66
2023/03/28 15:05:09;;;;;;;;;6.60;6.60;;;;;10.02;35.39;98911.78;6132344;28;96375;-66
2023/03/28 15:08:26;;;;;;;;;2.60;2.60;;;;;9.88;34.85;98902.97;6137463;28;96305;-66
2023/03/28 15:11:33;;;;;;;;;6.80;6.20;;;;;9.90;34.97;98905.44;6138353;28;96229;-66
2023/03/28 15:14:44;;;;;;;;;8.00;7.00;;;;;9.83;34.00;98910.88;6138041;28;96317;-66
2023/03/28 15:17:50;;;;;;;;;7.50;7.50;;;;;9.53;33.90;98913.31;6106352;28;98403;-66
2023/03/28 15:20:59;;;;;;;;;7.00;7.00;;;;;9.16;34.50;98913.25;6142218;28;96199;-66
2023/03/28 15:24:04;;;;;;;;;4.60;4.60;;;;;8.95;35.50;98907.09;6141504;28;97553;-66
2023/03/28 15:27:17;;;;;;;;;5.25;5.25;;;;;8.64;33.83;98910.50;6142118;28;96882;-66
2023/03/28 15:30:21;;;;;;;;;5.20;4.20;;;;;8.31;34.69;98895.44;6142736;28;96832;-66
2023/03/28 15:33:25;;;;;;;;;7.00;7.00;;;;;8.14;34.93;98919.13;6142596;28;96332;-66
2023/03/28 15:40:26;;;;;;;;;10.00;9.00;;;;;7.90;36.52;98925.09;6786955;22;99193;-66
2023/03/28 15:43:39;;;;;;;;;6.50;6.00;;;;;7.93;36.34;98936.25;6104003;28;96637;-66
2023/03/28 15:46:43;;;;;;;;;6.80;6.80;;;;;7.96;36.45;98943.06;6101098;28;96702;-67
2023/03/28 15:49:46;;;;;;;;;9.00;8.00;;;;;7.95;36.81;98931.50;6202998;23;99472;-66
2023/03/28 15:56:27;;;;;;;;;3.00;3.00;;;;;7.86;37.77;98961.41;7277409;23;99632;-66
2023/03/28 15:59:34;;;;;;;;;4.00;3.00;;;;;7.68;37.74;98953.91;6320425;23;99155;-66
2023/03/28 16:28:59;;;;;;;;;8.40;7.40;;;;;7.44;41.05;99000.88;7294225;23;99545;-66
2023/03/28 16:32:03;;;;;;;;;5.40;5.40;;;;;7.24;41.31;98979.31;7144599;23;99139;-67
2023/03/28 16:35:07;;;;;;;;;8.00;7.80;;;;;7.07;43.10;98999.44;6318945;23;97476;-65
2023/03/28 16:53:05;;;;;;;;;13.00;13.00;;;;;6.62;47.19;99021.34;7329581;23;99752;-65
2023/03/28 16:56:10;;;;;;;;;7.50;7.00;;;;;6.45;47.74;99016.25;6125920;28;96660;-66
2023/03/28 18:12:16;;;;;;;;;8.00;8.00;;;;;6.13;41.33;99200.63;6116254;23;99382;-68
2023/03/28 18:15:20;;;;;;;;;8.40;8.00;;;;;6.15;41.60;99201.28;6092731;28;96460;-68
2023/03/28 18:18:23;;;;;;;;;8.00;8.00;;;;;6.12;41.95;99205.16;6090698;28;96468;-68
2023/03/28 18:21:27;;;;;;;;;8.25;7.25;;;;;6.23;42.12;99202.00;6085863;28;98470;-67
2023/03/28 18:24:30;;;;;;;;;10.00;9.60;;;;;6.25;42.37;99207.19;6084574;28;96627;-68
2023/03/28 18:27:35;;;;;;;;;10.00;9.00;;;;;6.29;42.51;99213.84;6089476;28;98026;-68
2023/03/28 18:30:39;;;;;;;;;9.40;9.40;;;;;6.29;42.34;99222.69;6067637;28;96497;-68
2023/03/28 18:33:43;;;;;;;;;6.75;6.25;;;;;6.23;42.29;99230.63;6070414;28;96556;-68
2023/03/28 18:36:47;;;;;;;;;9.00;9.00;;;;;6.22;41.95;99229.78;6073275;28;96892;-68
2023/03/28 18:39:51;;;;;;;;;11.50;10.00;;;;;6.24;42.08;99243.84;6061569;28;96299;-68
2023/03/28 18:42:55;;;;;;;;;12.50;11.75;;;;;6.18;42.72;99233.03;6064313;28;98414;-68
2023/03/28 18:45:59;;;;;;;;;11.75;11.00;;;;;6.34;42.01;99252.44;6051299;28;96557;-68
2023/03/28 18:49:03;;;;;;;;;14.00;13.00;;;;;6.25;41.73;99242.00;6057930;28;96917;-68
2023/03/28 18:52:09;;;;;;;;;10.33;9.67;;;;;6.45;41.35;99262.66;6047352;28;100084;-68
2023/03/28 18:55:13;;;;;;;;;10.00;10.00;;;;;6.29;40.97;99249.47;6052657;28;96517;-67
2023/03/28 18:58:17;;;;;;;;;7.25;6.75;;;;;6.37;41.15;99264.59;6053789;28;97566;-68
2023/03/28 19:01:21;;;;;;;;;10.00;10.00;;;;;6.31;40.64;99270.69;6063638;28;96641;-68
2023/03/28 19:04:26;;;;;;;;;12.00;11.60;;;;;6.27;40.90;99274.75;6064525;28;96273;-68
2023/03/28 19:07:29;;;;;;;;;10.00;10.00;;;;;6.28;41.03;99277.25;6064498;28;96960;-67
2023/03/28 19:10:33;;;;;;;;;9.80;9.80;;;;;6.33;40.92;99271.34;6060967;28;96743;-67
2023/03/28 19:13:37;;;;;;;;;10.00;9.00;;;;;6.29;40.73;99268.22;6071692;28;97018;-68
2023/03/28 19:16:41;;;;;;;;;12.00;11.60;;;;;6.31;41.05;99266.16;6070640;28;96079;-68